Time;durP1;ratioP1;P1;durP2;ratioP2;P2;SDS_P1;SDS_P2;PMS_P1;PMS_P2;Temp;Humidity;BMP_temperature;BMP_pressure;BME280_temperature;BME280_humidity;BME280_pressure;Samples;Min_cycle;Max_cycle;Signal;HPM_P1;HPM_P2
2021/11/24 00:01:21;;;;;;;6.00;4.90;;;;;;;;;;4989869;28;20370;-77
2021/11/24 00:03:46;;;;;;;6.53;4.43;;;;;;;;;;4996797;28;20060;-76
2021/11/24 00:06:11;;;;;;;6.35;4.75;;;;;;;;;;4999846;28;20030;-79
2021/11/24 00:08:37;;;;;;;6.15;4.60;;;;;;;;;;4989853;28;20033;-79
2021/11/24 00:11:02;;;;;;;6.30;4.68;;;;;;;;;;4996723;28;20041;-81
2021/11/24 00:13:27;;;;;;;6.53;4.97;;;;;;;;;;4992479;28;20031;-80
2021/11/24 00:15:53;;;;;;;7.15;5.05;;;;;;;;;;5014312;28;20032;-81
2021/11/24 00:18:18;;;;;;;7.28;5.45;;;;;;;;;;4996619;28;20042;-77
2021/11/24 00:20:44;;;;;;;7.43;5.40;;;;;;;;;;4996733;28;20153;-80
2021/11/24 00:23:09;;;;;;;6.25;5.05;;;;;;;;;;4999600;28;20044;-79
2021/11/24 00:25:34;;;;;;;6.95;4.78;;;;;;;;;;4992049;28;20025;-82
2021/11/24 00:28:00;;;;;;;7.35;5.20;;;;;;;;;;4992014;28;20057;-81
2021/11/24 00:30:25;;;;;;;7.70;5.15;;;;;;;;;;4994172;28;20036;-77
2021/11/24 00:32:51;;;;;;;7.90;5.97;;;;;;;;;;4990293;28;20034;-79
2021/11/24 00:35:16;;;;;;;9.05;6.55;;;;;;;;;;4994767;28;20497;-77
2021/11/24 00:37:42;;;;;;;7.38;5.97;;;;;;;;;;4991919;28;20057;-78
2021/11/24 00:40:08;;;;;;;7.75;6.32;;;;;;;;;;4995521;28;20030;-77
2021/11/24 00:42:33;;;;;;;7.25;6.10;;;;;;;;;;4996541;28;20081;-78
2021/11/24 00:44:59;;;;;;;8.98;6.50;;;;;;;;;;4994744;28;20084;-81
2021/11/24 00:47:24;;;;;;;7.55;6.38;;;;;;;;;;4993498;28;20030;-77
2021/11/24 00:49:50;;;;;;;7.88;6.03;;;;;;;;;;5009408;28;20121;-82
2021/11/24 00:52:15;;;;;;;8.80;6.47;;;;;;;;;;4992960;28;20065;-80
2021/11/24 00:54:40;;;;;;;8.80;7.22;;;;;;;;;;4997444;28;20026;-81
2021/11/24 00:57:06;;;;;;;8.18;6.72;;;;;;;;;;4994511;28;20034;-79
2021/11/24 00:59:31;;;;;;;9.40;7.72;;;;;;;;;;4992132;28;20054;-79
2021/11/24 01:01:57;;;;;;;10.23;8.02;;;;;;;;;;4992169;28;20038;-82
2021/11/24 01:04:22;;;;;;;10.15;7.60;;;;;;;;;;5011315;28;20068;-79
2021/11/24 01:06:47;;;;;;;10.07;7.63;;;;;;;;;;5013070;28;20041;-80
2021/11/24 01:09:13;;;;;;;9.57;6.88;;;;;;;;;;4994383;28;20044;-80
2021/11/24 01:11:40;;;;;;;11.90;8.43;;;;;;;;;;5011439;28;20081;-81
2021/11/24 01:14:06;;;;;;;9.32;7.22;;;;;;;;;;4994394;28;20026;-79
2021/11/24 01:16:31;;;;;;;9.07;7.47;;;;;;;;;;5009853;28;20172;-80
2021/11/24 01:18:57;;;;;;;8.95;7.50;;;;;;;;;;5012746;28;20117;-79
2021/11/24 01:21:22;;;;;;;11.32;8.60;;;;;;;;;;4988771;28;20030;-79
2021/11/24 01:23:48;;;;;;;12.45;8.77;;;;;;;;;;4995151;28;20124;-80
2021/11/24 01:26:14;;;;;;;9.98;8.25;;;;;;;;;;5009473;28;20026;-79
2021/11/24 01:28:39;;;;;;;10.57;8.25;;;;;;;;;;5008529;28;20037;-82
2021/11/24 01:31:05;;;;;;;11.05;9.30;;;;;;;;;;4994457;28;20481;-79
2021/11/24 01:33:30;;;;;;;9.75;8.50;;;;;;;;;;4995609;28;20539;-76
2021/11/24 01:35:56;;;;;;;13.05;8.80;;;;;;;;;;4992627;28;20042;-79
2021/11/24 01:38:21;;;;;;;12.25;8.73;;;;;;;;;;5016030;28;20366;-81
2021/11/24 01:40:47;;;;;;;12.45;8.85;;;;;;;;;;4998408;28;20022;-79
2021/11/24 01:43:13;;;;;;;12.13;8.98;;;;;;;;;;4993009;28;20038;-81
2021/11/24 01:45:39;;;;;;;10.82;9.02;;;;;;;;;;4992568;28;20026;-77
2021/11/24 01:48:05;;;;;;;10.40;8.98;;;;;;;;;;4991183;28;20026;-82
2021/11/24 01:50:30;;;;;;;11.80;9.23;;;;;;;;;;5006742;28;21247;-80
2021/11/24 01:52:56;;;;;;;12.40;9.70;;;;;;;;;;5009762;28;20036;-77
2021/11/24 01:55:21;;;;;;;13.43;10.07;;;;;;;;;;4992980;28;20078;-79
2021/11/24 01:57:49;;;;;;;13.05;9.40;;;;;;;;;;4993758;28;20071;-77
2021/11/24 02:00:19;;;;;;;12.45;10.38;;;;;;;;;;4992912;28;20029;-82
2021/11/24 02:02:44;;;;;;;12.73;10.55;;;;;;;;;;5006289;28;20084;-81
2021/11/24 02:05:10;;;;;;;12.32;10.35;;;;;;;;;;5012450;28;20041;-81
2021/11/24 02:07:36;;;;;;;12.77;10.60;;;;;;;;;;4994749;28;20548;-77
2021/11/24 02:10:03;;;;;;;12.90;10.68;;;;;;;;;;4995144;28;20050;-81
2021/11/24 02:12:28;;;;;;;12.57;9.77;;;;;;;;;;4993567;28;20025;-82
2021/11/24 02:14:53;;;;;;;12.73;10.10;;;;;;;;;;4990223;28;20037;-78
2021/11/24 02:17:19;;;;;;;13.90;10.80;;;;;;;;;;4991097;28;20026;-80
2021/11/24 02:19:45;;;;;;;13.50;10.52;;;;;;;;;;5009941;28;20117;-77
2021/11/24 02:22:11;;;;;;;14.07;10.32;;;;;;;;;;4993423;28;20029;-77
2021/11/24 02:24:38;;;;;;;12.55;10.10;;;;;;;;;;4993847;28;20033;-77
2021/11/24 02:27:07;;;;;;;14.45;10.90;;;;;;;;;;4991374;28;22752;-79
2021/11/24 02:29:33;;;;;;;12.43;10.25;;;;;;;;;;4993640;28;20044;-82
2021/11/24 02:32:00;;;;;;;15.73;10.55;;;;;;;;;;5010690;28;20033;-79
2021/11/24 02:34:27;;;;;;;13.05;10.43;;;;;;;;;;4995175;28;20038;-77
2021/11/24 02:36:53;;;;;;;12.63;10.80;;;;;;;;;;4993215;28;20084;-78
2021/11/24 02:39:19;;;;;;;13.65;10.07;;;;;;;;;;4991911;28;20030;-79
2021/11/24 02:41:44;;;;;;;12.80;10.80;;;;;;;;;;5012103;28;20101;-81
2021/11/24 02:44:42;;;;;;;13.45;10.50;;;;;;;;;;4993983;28;20097;-82
2021/11/24 02:47:13;;;;;;;12.90;10.35;;;;;;;;;;4944422;28;20048;-79
2021/11/24 02:49:44;;;;;;;13.90;11.07;;;;;;;;;;4994778;28;20025;-80
2021/11/24 02:52:11;;;;;;;14.60;11.43;;;;;;;;;;5008791;28;20029;-80
2021/11/24 02:54:37;;;;;;;17.30;12.52;;;;;;;;;;4993496;28;20037;-81
2021/11/24 02:57:05;;;;;;;13.43;11.52;;;;;;;;;;4993444;28;20392;-79
2021/11/24 02:59:30;;;;;;;14.63;10.90;;;;;;;;;;5010756;28;20519;-77
2021/11/24 03:01:56;;;;;;;15.45;11.05;;;;;;;;;;5011387;28;20037;-82
2021/11/24 03:04:29;;;;;;;15.45;11.73;;;;;;;;;;4991103;28;20116;-81
2021/11/24 03:07:00;;;;;;;16.02;11.40;;;;;;;;;;5007993;28;20048;-80
2021/11/24 03:09:26;;;;;;;16.33;11.73;;;;;;;;;;4993544;28;20025;-80
2021/11/24 03:11:54;;;;;;;15.55;11.40;;;;;;;;;;4997571;28;20038;-77
2021/11/24 03:14:20;;;;;;;16.85;12.63;;;;;;;;;;5004523;28;20447;-80
2021/11/24 03:16:47;;;;;;;19.08;13.40;;;;;;;;;;4990413;28;20116;-81
2021/11/24 03:19:13;;;;;;;16.95;12.93;;;;;;;;;;5009460;28;20101;-77
2021/11/24 03:21:38;;;;;;;17.00;12.20;;;;;;;;;;4993307;28;20430;-77
2021/11/24 03:24:04;;;;;;;17.05;12.25;;;;;;;;;;5011104;28;20034;-79
2021/11/24 03:26:30;;;;;;;17.25;12.10;;;;;;;;;;5015656;28;20076;-81
2021/11/24 03:28:55;;;;;;;19.40;12.55;;;;;;;;;;5005918;28;20030;-77
2021/11/24 03:31:20;;;;;;;17.25;12.45;;;;;;;;;;4993148;28;20030;-77
2021/11/24 03:33:46;;;;;;;17.67;12.40;;;;;;;;;;5000259;28;20034;-80
2021/11/24 03:36:11;;;;;;;18.58;12.63;;;;;;;;;;4994457;28;20068;-80
2021/11/24 03:38:37;;;;;;;17.35;12.40;;;;;;;;;;4994477;28;20022;-76
2021/11/24 03:41:02;;;;;;;16.73;11.65;;;;;;;;;;5015027;28;20038;-81
2021/11/24 03:43:28;;;;;;;17.02;12.15;;;;;;;;;;4997608;28;20029;-80
2021/11/24 03:45:53;;;;;;;18.92;13.40;;;;;;;;;;5008766;28;20029;-79
2021/11/24 03:48:19;;;;;;;17.10;12.18;;;;;;;;;;4990313;28;20029;-79
2021/11/24 03:50:45;;;;;;;15.85;11.30;;;;;;;;;;5006690;28;20025;-81
2021/11/24 03:53:10;;;;;;;18.10;12.57;;;;;;;;;;5007689;28;20066;-78
2021/11/24 03:55:36;;;;;;;18.02;12.73;;;;;;;;;;4997116;28;20628;-79
2021/11/24 03:58:02;;;;;;;17.98;13.13;;;;;;;;;;4995547;28;20830;-79
2021/11/24 04:00:29;;;;;;;16.48;12.07;;;;;;;;;;4997650;28;20037;-77
2021/11/24 04:02:55;;;;;;;17.30;11.68;;;;;;;;;;5012295;28;20036;-80
2021/11/24 04:05:21;;;;;;;16.63;11.93;;;;;;;;;;5001209;28;20108;-82
2021/11/24 04:07:47;;;;;;;18.42;13.57;;;;;;;;;;5010272;28;20034;-77
2021/11/24 04:10:13;;;;;;;18.33;13.07;;;;;;;;;;4993599;28;20132;-82
2021/11/24 04:12:42;;;;;;;17.98;12.90;;;;;;;;;;4990615;28;20172;-77
2021/11/24 04:15:08;;;;;;;19.10;13.38;;;;;;;;;;4995164;28;20036;-82
2021/11/24 04:17:34;;;;;;;17.55;12.15;;;;;;;;;;5005787;28;20036;-81
2021/11/24 04:20:00;;;;;;;17.75;12.35;;;;;;;;;;4995301;28;20396;-81
2021/11/24 04:22:25;;;;;;;16.75;11.30;;;;;;;;;;4992986;28;20045;-77
2021/11/24 04:24:51;;;;;;;17.13;12.18;;;;;;;;;;4992010;28;20056;-81
2021/11/24 04:27:16;;;;;;;17.75;12.68;;;;;;;;;;4994217;28;20026;-79
2021/11/24 04:29:42;;;;;;;17.58;12.48;;;;;;;;;;5012032;28;20053;-80
2021/11/24 04:32:08;;;;;;;16.33;12.20;;;;;;;;;;5009789;28;20030;-82
2021/11/24 04:34:35;;;;;;;18.58;12.48;;;;;;;;;;4993858;28;20113;-82
2021/11/24 04:37:00;;;;;;;16.63;12.25;;;;;;;;;;4977946;28;20441;-80
2021/11/24 04:39:26;;;;;;;16.60;12.32;;;;;;;;;;4993291;28;20045;-77
2021/11/24 04:41:51;;;;;;;18.98;12.40;;;;;;;;;;5000588;28;20025;-77
2021/11/24 04:44:17;;;;;;;18.40;13.07;;;;;;;;;;5006374;28;20034;-79
2021/11/24 04:46:42;;;;;;;18.08;12.32;;;;;;;;;;5012184;28;20480;-81
2021/11/24 04:49:08;;;;;;;16.15;11.55;;;;;;;;;;5007736;28;20030;-82
2021/11/24 04:51:33;;;;;;;17.88;13.15;;;;;;;;;;5009882;28;20034;-77
2021/11/24 04:53:58;;;;;;;17.10;12.15;;;;;;;;;;5007012;28;20056;-79
2021/11/24 04:56:24;;;;;;;18.15;12.02;;;;;;;;;;5009105;28;20045;-79
2021/11/24 05:01:14;;;;;;;18.63;12.45;;;;;;;;;;5011970;28;20034;-81
2021/11/24 05:03:40;;;;;;;18.23;11.90;;;;;;;;;;4992755;28;20446;-79
2021/11/24 05:06:05;;;;;;;17.83;12.55;;;;;;;;;;5005040;28;20033;-81
2021/11/24 05:08:30;;;;;;;17.55;11.63;;;;;;;;;;5008298;28;20080;-79
2021/11/24 05:10:56;;;;;;;15.68;11.25;;;;;;;;;;4956671;28;1039749;-82
2021/11/24 05:13:21;;;;;;;16.23;11.73;;;;;;;;;;4995246;28;20046;-77
2021/11/24 05:15:47;;;;;;;16.27;10.95;;;;;;;;;;4994156;28;20079;-79
2021/11/24 05:18:20;;;;;;;17.15;11.75;;;;;;;;;;4994828;28;20571;-80
2021/11/24 05:20:46;;;;;;;16.17;11.50;;;;;;;;;;4996302;28;20026;-82
2021/11/24 05:23:15;;;;;;;16.45;11.02;;;;;;;;;;4990623;28;20497;-79
2021/11/24 05:25:40;;;;;;;15.70;10.93;;;;;;;;;;4994596;28;20457;-79
2021/11/24 05:28:06;;;;;;;16.45;11.05;;;;;;;;;;5011837;28;20037;-79
2021/11/24 05:30:32;;;;;;;16.60;11.90;;;;;;;;;;4996794;28;21879;-79
2021/11/24 05:32:57;;;;;;;16.38;11.50;;;;;;;;;;4995443;28;20485;-77
2021/11/24 05:35:25;;;;;;;15.43;11.45;;;;;;;;;;4994762;28;20033;-79
2021/11/24 05:37:51;;;;;;;16.50;11.55;;;;;;;;;;5011483;28;20037;-79
2021/11/24 05:40:17;;;;;;;17.58;12.35;;;;;;;;;;4995442;28;20079;-77
2021/11/24 05:42:49;;;;;;;16.27;11.43;;;;;;;;;;4992138;28;20033;-79
2021/11/24 05:45:40;;;;;;;15.77;11.45;;;;;;;;;;5007532;28;20026;-81
2021/11/24 05:48:09;;;;;;;15.63;10.85;;;;;;;;;;4995100;28;20485;-78
2021/11/24 05:50:35;;;;;;;14.43;10.57;;;;;;;;;;4995346;28;20059;-79
2021/11/24 05:53:00;;;;;;;16.60;11.55;;;;;;;;;;5011248;28;20159;-79
2021/11/24 05:55:26;;;;;;;15.65;11.30;;;;;;;;;;5007278;28;20026;-80
2021/11/24 05:57:51;;;;;;;16.25;11.77;;;;;;;;;;4993102;28;20021;-80
2021/11/24 06:00:18;;;;;;;16.23;10.98;;;;;;;;;;4995566;28;20029;-80
2021/11/24 06:02:44;;;;;;;18.02;13.05;;;;;;;;;;5008244;28;20137;-80
2021/11/24 06:05:10;;;;;;;16.45;11.82;;;;;;;;;;4994663;28;20053;-77
2021/11/24 06:07:35;;;;;;;17.40;11.95;;;;;;;;;;4994387;28;21986;-79
2021/11/24 06:10:03;;;;;;;16.83;12.10;;;;;;;;;;5012640;28;20046;-82
2021/11/24 06:12:28;;;;;;;15.95;11.13;;;;;;;;;;5008566;28;20393;-77
2021/11/24 06:14:53;;;;;;;15.23;11.57;;;;;;;;;;4991648;28;20030;-80
2021/11/24 06:17:19;;;;;;;14.90;10.23;;;;;;;;;;5012745;28;20400;-79
2021/11/24 06:19:44;;;;;;;16.20;11.45;;;;;;;;;;5006826;28;20037;-79
2021/11/24 06:22:09;;;;;;;14.10;10.40;;;;;;;;;;4992291;28;20393;-80
2021/11/24 06:24:35;;;;;;;17.58;11.75;;;;;;;;;;4993840;28;21998;-80
2021/11/24 06:27:00;;;;;;;15.02;10.90;;;;;;;;;;4992223;28;20033;-79
2021/11/24 06:29:26;;;;;;;14.13;10.35;;;;;;;;;;4991990;28;20041;-81
2021/11/24 06:31:51;;;;;;;14.82;10.90;;;;;;;;;;4994244;28;20108;-82
2021/11/24 06:34:16;;;;;;;16.67;11.57;;;;;;;;;;5003555;28;20030;-77
2021/11/24 06:36:42;;;;;;;15.30;11.35;;;;;;;;;;5000026;28;20026;-79
2021/11/24 06:39:07;;;;;;;14.85;10.90;;;;;;;;;;4993166;28;20037;-79
2021/11/24 06:41:33;;;;;;;15.13;11.32;;;;;;;;;;4992602;28;20060;-81
2021/11/24 06:43:59;;;;;;;16.38;11.57;;;;;;;;;;5012408;28;20469;-80
2021/11/24 06:46:24;;;;;;;16.75;11.50;;;;;;;;;;5007512;28;20033;-77
2021/11/24 06:48:49;;;;;;;15.27;11.23;;;;;;;;;;4997284;28;20049;-76
2021/11/24 06:51:14;;;;;;;15.43;11.00;;;;;;;;;;5002225;28;20377;-78
2021/11/24 06:53:41;;;;;;;15.45;11.32;;;;;;;;;;5001231;28;20017;-82
2021/11/24 06:56:07;;;;;;;15.27;11.70;;;;;;;;;;5012245;28;20026;-77
2021/11/24 06:58:33;;;;;;;17.13;11.98;;;;;;;;;;5008563;28;20065;-80
2021/11/24 07:01:01;;;;;;;16.15;11.82;;;;;;;;;;4993796;28;20030;-79
2021/11/24 07:03:26;;;;;;;15.32;11.50;;;;;;;;;;4990701;28;20459;-80
2021/11/24 07:05:51;;;;;;;16.15;11.65;;;;;;;;;;4992355;28;20041;-77
2021/11/24 07:08:17;;;;;;;16.13;11.40;;;;;;;;;;4992595;28;20030;-79
2021/11/24 07:10:42;;;;;;;17.83;12.43;;;;;;;;;;5011872;28;20104;-78
2021/11/24 07:13:07;;;;;;;16.00;11.65;;;;;;;;;;5010895;28;20369;-81
2021/11/24 07:15:33;;;;;;;16.00;11.55;;;;;;;;;;4998583;28;20555;-80
2021/11/24 07:17:59;;;;;;;16.27;11.85;;;;;;;;;;4994191;28;20029;-78
2021/11/24 07:20:24;;;;;;;15.73;11.75;;;;;;;;;;4995731;28;20036;-79
2021/11/24 07:22:50;;;;;;;16.25;12.50;;;;;;;;;;5013429;28;20026;-79
2021/11/24 07:25:16;;;;;;;16.50;12.48;;;;;;;;;;5016862;28;20421;-81
2021/11/24 07:27:41;;;;;;;17.90;12.48;;;;;;;;;;4990554;28;20026;-81
2021/11/24 07:30:07;;;;;;;19.60;13.00;;;;;;;;;;4996300;28;20026;-78
2021/11/24 07:32:34;;;;;;;15.82;11.75;;;;;;;;;;5008031;28;20384;-77
2021/11/24 07:35:01;;;;;;;16.15;11.70;;;;;;;;;;4999172;28;20112;-81
2021/11/24 07:37:27;;;;;;;15.57;12.10;;;;;;;;;;5005586;28;20018;-77
2021/11/24 07:39:53;;;;;;;15.25;11.80;;;;;;;;;;5003010;28;20520;-79
2021/11/24 07:42:18;;;;;;;16.27;11.52;;;;;;;;;;4995922;28;20053;-81
2021/11/24 07:44:43;;;;;;;15.32;11.25;;;;;;;;;;4991028;28;20034;-81
2021/11/24 07:47:09;;;;;;;15.77;12.02;;;;;;;;;;5013322;28;20436;-77
2021/11/24 07:49:34;;;;;;;14.00;11.45;;;;;;;;;;5017362;28;20088;-81
2021/11/24 07:52:00;;;;;;;16.05;13.00;;;;;;;;;;4993911;28;20026;-77
2021/11/24 07:54:25;;;;;;;17.52;12.85;;;;;;;;;;5005403;28;20022;-79
2021/11/24 07:56:50;;;;;;;15.38;12.20;;;;;;;;;;4994959;28;19930;-82
2021/11/24 07:59:16;;;;;;;15.95;12.27;;;;;;;;;;4988099;28;20440;-81
2021/11/24 08:01:41;;;;;;;17.13;13.43;;;;;;;;;;5015970;28;20084;-81
2021/11/24 08:04:07;;;;;;;15.23;11.98;;;;;;;;;;5015184;28;20047;-82
2021/11/24 08:06:32;;;;;;;16.23;12.85;;;;;;;;;;4998206;28;20021;-81
2021/11/24 08:08:57;;;;;;;17.13;12.65;;;;;;;;;;4998475;28;20025;-77
2021/11/24 08:11:23;;;;;;;18.35;13.63;;;;;;;;;;4995133;28;20050;-81
2021/11/24 08:13:48;;;;;;;16.13;13.18;;;;;;;;;;5015098;28;20109;-76
2021/11/24 08:16:14;;;;;;;14.98;12.27;;;;;;;;;;4997755;28;20026;-81
2021/11/24 08:18:40;;;;;;;16.02;13.00;;;;;;;;;;4995938;28;20034;-81
2021/11/24 08:21:05;;;;;;;15.40;12.25;;;;;;;;;;5013012;28;20057;-81
2021/11/24 08:23:31;;;;;;;19.00;13.98;;;;;;;;;;5015710;28;20080;-81
2021/11/24 08:25:56;;;;;;;15.85;12.60;;;;;;;;;;4996062;28;20369;-81
2021/11/24 08:28:21;;;;;;;18.95;14.57;;;;;;;;;;4995146;28;20485;-79
2021/11/24 08:30:47;;;;;;;17.20;13.73;;;;;;;;;;4997668;28;20026;-78
2021/11/24 08:33:12;;;;;;;19.38;14.25;;;;;;;;;;4995688;28;20485;-77
2021/11/24 08:35:38;;;;;;;18.65;12.52;;;;;;;;;;5007598;28;20744;-79
2021/11/24 08:38:03;;;;;;;15.55;12.20;;;;;;;;;;5008208;28;20034;-80
2021/11/24 08:40:29;;;;;;;15.52;11.95;;;;;;;;;;4997412;28;20022;-79
2021/11/24 08:42:54;;;;;;;15.45;11.55;;;;;;;;;;4996689;28;20163;-81
2021/11/24 08:45:20;;;;;;;15.25;12.15;;;;;;;;;;5014910;28;20021;-78
2021/11/24 08:47:45;;;;;;;15.70;12.48;;;;;;;;;;5014036;28;20022;-81
2021/11/24 08:50:13;;;;;;;18.60;12.18;;;;;;;;;;4998050;28;20052;-80
2021/11/24 08:52:39;;;;;;;16.23;12.07;;;;;;;;;;5018902;28;20045;-79
2021/11/24 08:55:06;;;;;;;14.73;11.05;;;;;;;;;;5014429;28;20030;-81
2021/11/24 08:57:32;;;;;;;14.00;10.90;;;;;;;;;;5014430;28;20030;-77
2021/11/24 08:59:57;;;;;;;14.30;11.70;;;;;;;;;;4997668;28;20030;-81
2021/11/24 09:02:27;;;;;;;14.57;11.05;;;;;;;;;;5011414;28;20461;-80
2021/11/24 09:04:53;;;;;;;12.80;10.35;;;;;;;;;;4999107;28;20045;-78
2021/11/24 09:07:19;;;;;;;14.27;11.38;;;;;;;;;;4997019;28;20069;-77
2021/11/24 09:09:44;;;;;;;14.57;10.75;;;;;;;;;;5009468;28;20048;-79
2021/11/24 09:12:10;;;;;;;15.20;11.77;;;;;;;;;;5017616;28;20485;-77
2021/11/24 09:14:35;;;;;;;14.65;11.27;;;;;;;;;;4997052;28;20030;-81
2021/11/24 09:17:00;;;;;;;15.88;12.40;;;;;;;;;;5001334;28;20037;-76
2021/11/24 09:19:26;;;;;;;16.23;12.30;;;;;;;;;;4992022;28;20499;-80
2021/11/24 09:21:51;;;;;;;16.55;12.25;;;;;;;;;;4994170;28;20048;-79
2021/11/24 09:24:22;;;;;;;15.90;11.82;;;;;;;;;;4999937;28;20040;-81
2021/11/24 09:27:14;;;;;;;16.17;10.55;;;;;;;;;;4997855;28;20085;-76
2021/11/24 09:29:33;;;;;;;19.65;13.70;;;;;;;;;;5007943;28;20069;-79
2021/11/24 09:32:03;;;;;;;18.80;13.00;;;;;;;;;;4996443;28;20036;-77
2021/11/24 09:34:30;;;;;;;19.10;13.10;;;;;;;;;;4999707;28;20021;-81
2021/11/24 09:36:56;;;;;;;20.95;13.75;;;;;;;;;;5006826;28;20048;-76
2021/11/24 09:39:21;;;;;;;18.02;12.25;;;;;;;;;;5012557;28;20030;-80
2021/11/24 09:41:50;;;;;;;19.83;12.73;;;;;;;;;;4991357;28;20026;-79
2021/11/24 09:44:16;;;;;;;19.92;12.73;;;;;;;;;;4995297;28;20025;-79
2021/11/24 09:46:47;;;;;;;23.60;13.63;;;;;;;;;;4992380;28;20018;-77
2021/11/24 09:49:14;;;;;;;22.52;13.48;;;;;;;;;;4999061;28;20026;-78
2021/11/24 09:51:41;;;;;;;24.30;13.93;;;;;;;;;;5000480;28;20128;-76
2021/11/24 09:54:09;;;;;;;25.17;14.25;;;;;;;;;;4991990;28;20084;-76
2021/11/24 09:56:39;;;;;;;26.35;14.63;;;;;;;;;;4999393;28;20511;-81
2021/11/24 09:59:04;;;;;;;25.92;14.35;;;;;;;;;;4993609;28;20727;-80
2021/11/24 10:01:30;;;;;;;26.13;14.38;;;;;;;;;;4995400;28;20117;-76
2021/11/24 10:03:55;;;;;;;26.23;14.10;;;;;;;;;;5012187;28;20029;-81
2021/11/24 10:06:22;;;;;;;29.17;14.52;;;;;;;;;;5002671;28;20084;-79
2021/11/24 10:08:50;;;;;;;28.60;14.32;;;;;;;;;;5006224;28;20026;-81
2021/11/24 10:11:15;;;;;;;28.45;13.68;;;;;;;;;;5002493;28;20460;-79
2021/11/24 10:13:40;;;;;;;30.33;14.45;;;;;;;;;;4999120;28;20049;-81
2021/11/24 10:16:19;;;;;;;30.58;13.80;;;;;;;;;;5005648;28;20028;-82
2021/11/24 10:18:56;;;;;;;27.13;13.40;;;;;;;;;;5013157;28;20057;-76
2021/11/24 10:21:21;;;;;;;23.67;12.60;;;;;;;;;;4994905;28;20030;-80
2021/11/24 10:23:49;;;;;;;28.33;13.15;;;;;;;;;;4995100;28;20480;-81
2021/11/24 10:26:32;;;;;;;31.48;12.88;;;;;;;;;;4992101;28;20481;-79
2021/11/24 10:29:09;;;;;;;26.23;12.48;;;;;;;;;;4996052;28;20028;-81
2021/11/24 10:31:44;;;;;;;28.88;12.07;;;;;;;;;;4987502;28;20824;-77
2021/11/24 10:34:15;;;;;;;26.35;12.90;;;;;;;;;;5010466;28;20025;-81
2021/11/24 10:37:06;;;;;;;26.38;12.93;;;;;;;;;;5012885;28;20033;-76
2021/11/24 10:40:00;;;;;;;29.23;13.50;;;;;;;;;;4998475;28;20097;-79
2021/11/24 10:42:30;;;;;;;24.73;12.50;;;;;;;;;;5003105;28;20033;-77
2021/11/24 10:45:08;;;;;;;25.00;12.55;;;;;;;;;;4996818;28;20152;-81
2021/11/24 10:47:34;;;;;;;25.02;12.85;;;;;;;;;;5012106;28;20034;-79
2021/11/24 10:50:03;;;;;;;29.17;13.50;;;;;;;;;;4995183;28;20032;-80
2021/11/24 10:52:32;;;;;;;29.23;13.55;;;;;;;;;;5010513;28;20401;-80
2021/11/24 10:55:17;;;;;;;26.63;13.82;;;;;;;;;;5002120;28;20062;-81
2021/11/24 10:57:45;;;;;;;27.52;13.23;;;;;;;;;;4991595;28;20409;-80
2021/11/24 11:00:16;;;;;;;25.08;12.70;;;;;;;;;;4998793;28;20026;-77
2021/11/24 11:02:43;;;;;;;24.67;13.40;;;;;;;;;;5013631;28;20044;-79
2021/11/24 11:05:09;;;;;;;25.85;13.75;;;;;;;;;;5003851;28;20025;-76
2021/11/24 11:07:40;;;;;;;25.58;14.25;;;;;;;;;;5014102;28;20109;-76
2021/11/24 11:10:18;;;;;;;26.63;13.80;;;;;;;;;;4994237;28;20493;-78
2021/11/24 11:12:47;;;;;;;23.08;13.00;;;;;;;;;;4997070;28;20045;-81
2021/11/24 11:15:22;;;;;;;26.23;14.35;;;;;;;;;;5002253;28;20025;-78
2021/11/24 11:18:01;;;;;;;28.05;14.40;;;;;;;;;;4992735;28;20028;-81
2021/11/24 11:20:47;;;;;;;30.98;14.27;;;;;;;;;;5019737;28;20022;-79
2021/11/24 11:23:13;;;;;;;22.58;12.98;;;;;;;;;;5013537;28;20037;-81
2021/11/24 11:25:48;;;;;;;28.50;14.23;;;;;;;;;;5015544;28;20164;-80
2021/11/24 11:28:15;;;;;;;28.83;14.55;;;;;;;;;;4998433;28;20088;-81
2021/11/24 11:30:43;;;;;;;27.52;14.38;;;;;;;;;;4994074;28;20037;-77
2021/11/24 11:33:09;;;;;;;26.08;15.02;;;;;;;;;;5015173;28;20169;-77
2021/11/24 11:35:35;;;;;;;25.02;13.50;;;;;;;;;;5003151;28;20504;-76
2021/11/24 11:38:01;;;;;;;29.33;14.80;;;;;;;;;;4992996;28;20026;-80
2021/11/24 11:40:27;;;;;;;25.73;14.10;;;;;;;;;;4999878;28;20111;-79
2021/11/24 11:42:57;;;;;;;25.25;13.70;;;;;;;;;;5010072;28;20367;-80
2021/11/24 11:45:22;;;;;;;24.92;13.68;;;;;;;;;;4991013;28;20366;-78
2021/11/24 11:47:52;;;;;;;27.95;15.93;;;;;;;;;;4994543;28;20030;-80
2021/11/24 11:50:46;;;;;;;25.67;14.43;;;;;;;;;;5007200;28;20057;-81
2021/11/24 11:53:18;;;;;;;26.20;13.90;;;;;;;;;;4997026;28;20393;-79
2021/11/24 11:55:46;;;;;;;29.92;15.00;;;;;;;;;;5023459;28;20026;-80
2021/11/24 11:58:29;;;;;;;27.02;15.32;;;;;;;;;;4992950;28;20042;-79
2021/11/24 12:01:04;;;;;;;29.27;15.75;;;;;;;;;;5000730;28;20061;-81
2021/11/24 12:04:17;;;;;;;26.00;14.75;;;;;;;;;;4990891;28;20030;-80
2021/11/24 12:06:46;;;;;;;26.75;14.27;;;;;;;;;;4970836;28;20409;-81
2021/11/24 12:09:29;;;;;;;26.63;14.23;;;;;;;;;;5005989;28;20593;-80
2021/11/24 12:12:05;;;;;;;25.83;14.98;;;;;;;;;;4996581;28;20045;-77
2021/11/24 12:14:51;;;;;;;28.40;15.15;;;;;;;;;;4977301;28;20350;-81
2021/11/24 12:19:55;;;;;;;28.75;14.88;;;;;;;;;;4984774;28;20382;-79
2021/11/24 12:22:47;;;;;;;28.23;15.63;;;;;;;;;;4963797;28;20034;-80
2021/11/24 12:25:25;;;;;;;23.95;13.18;;;;;;;;;;4985901;28;20064;-81
2021/11/24 12:27:53;;;;;;;26.20;13.98;;;;;;;;;;5004829;28;20109;-76
2021/11/24 12:30:34;;;;;;;25.25;14.20;;;;;;;;;;4972715;28;20062;-76
2021/11/24 12:33:01;;;;;;;29.35;15.35;;;;;;;;;;4999109;28;20359;-76
2021/11/24 12:35:27;;;;;;;28.05;15.40;;;;;;;;;;4993627;28;20089;-81
2021/11/24 12:37:55;;;;;;;26.08;14.43;;;;;;;;;;4997145;28;20030;-80
2021/11/24 12:40:28;;;;;;;25.25;14.20;;;;;;;;;;4991926;28;20031;-81
2021/11/24 12:42:57;;;;;;;;;;;;;;;;;;4993391;28;20515;-80
2021/11/24 12:45:23;;;;;;;28.70;15.30;;;;;;;;;;4980342;28;19914;-81
2021/11/24 12:48:05;;;;;;;29.23;15.70;;;;;;;;;;4981694;28;20394;-76
2021/11/24 12:50:32;;;;;;;28.73;15.85;;;;;;;;;;4998550;28;20378;-81
2021/11/24 12:53:03;;;;;;;28.25;15.95;;;;;;;;;;4992819;28;20079;-76
2021/11/24 12:55:30;;;;;;;28.80;15.50;;;;;;;;;;4991466;28;20029;-76
2021/11/24 12:57:55;;;;;;;26.25;14.85;;;;;;;;;;4978075;28;20709;-76
2021/11/24 13:00:28;;;;;;;25.98;14.65;;;;;;;;;;4999431;28;20061;-80
2021/11/24 13:02:54;;;;;;;;;;;;;;;;;;4994215;28;20061;-79
2021/11/24 13:05:19;;;;;;;25.25;13.80;;;;;;;;;;4982225;28;19913;-78
2021/11/24 13:07:53;;;;;;;29.40;15.32;;;;;;;;;;4983738;28;20517;-80
2021/11/24 13:10:21;;;;;;;27.75;14.73;;;;;;;;;;4997586;28;20054;-81
2021/11/24 13:12:46;;;;;;;25.25;13.63;;;;;;;;;;4997798;28;20389;-79
2021/11/24 13:15:12;;;;;;;24.17;14.32;;;;;;;;;;4994182;28;20145;-82
2021/11/24 13:17:42;;;;;;;29.13;16.00;;;;;;;;;;4999205;28;20061;-79
2021/11/24 13:20:11;;;;;;;30.80;16.83;;;;;;;;;;5017709;28;20087;-76
2021/11/24 13:22:51;;;;;;;27.17;15.50;;;;;;;;;;5014711;28;20029;-79
2021/11/24 13:25:28;;;;;;;28.80;16.60;;;;;;;;;;5003773;28;20037;-80
2021/11/24 13:28:17;;;;;;;29.70;16.83;;;;;;;;;;5008163;28;20030;-77
2021/11/24 13:30:49;;;;;;;30.38;16.92;;;;;;;;;;5015494;28;20048;-79
2021/11/24 13:33:18;;;;;;;27.85;16.23;;;;;;;;;;5014752;28;20488;-81
2021/11/24 13:35:49;;;;;;;28.95;16.42;;;;;;;;;;5010765;28;20021;-81
2021/11/24 13:38:27;;;;;;;28.48;16.23;;;;;;;;;;5011589;28;20097;-81
2021/11/24 13:40:59;;;;;;;29.13;16.05;;;;;;;;;;5010185;28;20037;-76
2021/11/24 13:43:36;;;;;;;28.83;15.55;;;;;;;;;;5000138;28;20038;-79
2021/11/24 13:46:22;;;;;;;29.73;16.70;;;;;;;;;;4997269;28;20470;-77
2021/11/24 13:48:50;;;;;;;28.05;16.98;;;;;;;;;;5014743;28;20014;-80
2021/11/24 13:51:19;;;;;;;28.63;16.55;;;;;;;;;;5012708;28;20045;-77
2021/11/24 13:53:44;;;;;;;29.30;17.23;;;;;;;;;;5002736;28;20072;-80
2021/11/24 13:56:22;;;;;;;29.67;16.98;;;;;;;;;;4990615;28;20035;-79
2021/11/24 13:58:59;;;;;;;27.55;16.30;;;;;;;;;;5017502;28;20764;-79
2021/11/24 14:01:34;;;;;;;29.23;15.85;;;;;;;;;;5013658;28;20034;-79
2021/11/24 14:04:03;;;;;;;28.95;16.10;;;;;;;;;;5001640;28;20014;-81
2021/11/24 14:06:37;;;;;;;30.23;16.85;;;;;;;;;;5003865;28;20108;-77
2021/11/24 14:09:27;;;;;;;30.98;17.33;;;;;;;;;;4987631;28;20021;-80
2021/11/24 14:12:06;;;;;;;32.15;17.45;;;;;;;;;;5005566;28;20045;-81
2021/11/24 14:14:51;;;;;;;26.13;16.10;;;;;;;;;;5011835;28;20040;-80
2021/11/24 14:17:29;;;;;;;28.60;16.63;;;;;;;;;;5004524;28;20033;-78
2021/11/24 14:19:56;;;;;;;29.95;15.35;;;;;;;;;;5008562;28;20081;-77
2021/11/24 14:22:44;;;;;;;27.33;15.95;;;;;;;;;;5011166;28;20026;-77
2021/11/24 14:25:16;;;;;;;29.23;17.00;;;;;;;;;;5008901;28;20052;-78
2021/11/24 14:27:44;;;;;;;30.50;16.88;;;;;;;;;;4998716;28;20037;-78
2021/11/24 14:30:13;;;;;;;28.42;17.38;;;;;;;;;;5010859;28;20101;-79
2021/11/24 14:32:40;;;;;;;31.25;17.75;;;;;;;;;;4999764;28;20021;-80